Time;durP1;ratioP1;P1;durP2;ratioP2;P2;SDS_P1;SDS_P2;PMS_P1;PMS_P2;Temp;Humidity;BMP_temperature;BMP_pressure;BME280_temperature;BME280_humidity;BME280_pressure;Samples;Min_cycle;Max_cycle;Signal;HPM_P1;HPM_P2
2022/01/14 00:00:05;;;;;;;25.52;12.43;;;6.20;99.90;;;;;;4990150;28;20038;-61
2022/01/14 00:02:31;;;;;;;19.73;11.90;;;6.20;99.90;;;;;;4989847;28;20054;-61
2022/01/14 00:04:57;;;;;;;28.17;12.80;;;6.30;99.90;;;;;;4990281;28;20038;-61
2022/01/14 00:07:25;;;;;;;25.00;11.77;;;6.30;99.90;;;;;;4989817;28;20500;-60
2022/01/14 00:09:50;;;;;;;29.48;12.18;;;6.20;99.90;;;;;;4990084;28;20046;-60
2022/01/14 00:12:23;;;;;;;24.77;11.50;;;6.20;99.90;;;;;;4989878;28;20040;-61
2022/01/14 00:15:23;;;;;;;23.83;11.95;;;6.20;99.90;;;;;;4989907;28;20046;-61
2022/01/14 00:17:46;;;;;;;24.38;11.52;;;6.30;99.90;;;;;;4989760;28;20507;-61
2022/01/14 00:20:12;;;;;;;25.60;12.00;;;6.20;99.90;;;;;;4989687;28;20035;-61
2022/01/14 00:22:38;;;;;;;20.58;12.63;;;6.20;99.90;;;;;;4990099;28;20113;-61
2022/01/14 00:33:10;;;;;;;28.85;13.50;;;6.30;99.90;;;;;;4989975;28;20073;-61
2022/01/14 00:35:41;;;;;;;25.42;12.93;;;6.20;99.90;;;;;;4989455;28;20038;-61
2022/01/14 00:38:08;;;;;;;27.73;11.88;;;6.20;99.90;;;;;;4988822;28;20050;-61
2022/01/14 00:40:34;;;;;;;25.05;12.35;;;6.30;99.90;;;;;;4989761;28;20050;-61
2022/01/14 00:43:00;;;;;;;30.33;12.90;;;6.20;99.90;;;;;;4989757;28;20042;-61
2022/01/14 00:45:26;;;;;;;27.45;12.25;;;6.20;99.90;;;;;;4989302;28;20052;-60
2022/01/14 00:47:52;;;;;;;21.98;12.63;;;6.20;99.90;;;;;;4989469;28;20042;-61
2022/01/14 00:50:19;;;;;;;22.88;11.02;;;6.20;99.90;;;;;;4989423;28;20050;-61
2022/01/14 00:52:45;;;;;;;25.17;12.10;;;6.30;99.90;;;;;;4989260;28;20121;-60
2022/01/14 00:55:15;;;;;;;27.25;12.50;;;6.30;99.90;;;;;;4989322;28;20039;-60
2022/01/14 01:00:19;;;;;;;26.00;12.73;;;6.30;99.90;;;;;;4989257;28;20404;-60
2022/01/14 01:02:45;;;;;;;27.63;11.73;;;6.20;99.90;;;;;;4989255;28;20548;-60
2022/01/14 01:05:13;;;;;;;29.42;12.60;;;6.20;99.90;;;;;;4989119;28;20354;-60
2022/01/14 01:07:43;;;;;;;23.50;12.20;;;6.20;99.90;;;;;;4989418;28;20426;-61
2022/01/14 01:10:11;;;;;;;27.20;12.20;;;6.20;99.90;;;;;;4989357;28;20248;-61
2022/01/14 01:15:27;;;;;;;28.33;12.07;;;6.20;99.90;;;;;;4929197;29;20177;-61
2022/01/14 01:17:53;;;;;;;21.42;10.90;;;6.10;99.90;;;;;;4929130;28;20482;-61
2022/01/14 01:20:18;;;;;;;22.40;11.10;;;6.10;99.90;;;;;;4929551;29;20195;-60
2022/01/14 01:22:48;;;;;;;24.15;11.07;;;6.00;99.90;;;;;;4929350;28;20040;-60
2022/01/14 01:25:16;;;;;;;24.88;12.55;;;6.00;99.90;;;;;;4929137;28;20094;-60
2022/01/14 01:27:43;;;;;;;26.00;12.52;;;6.00;99.90;;;;;;4929037;29;20561;-60
2022/01/14 01:30:15;;;;;;;26.42;12.32;;;6.00;99.90;;;;;;4929066;28;20047;-60
2022/01/14 01:32:47;;;;;;;25.13;11.25;;;6.00;99.90;;;;;;4929020;29;20138;-60
2022/01/14 01:35:14;;;;;;;25.60;11.90;;;6.00;99.90;;;;;;4929035;28;20043;-61
2022/01/14 01:37:40;;;;;;;28.77;12.40;;;6.00;99.90;;;;;;4929027;29;20044;-60
2022/01/14 01:40:06;;;;;;;30.08;13.57;;;5.90;99.90;;;;;;4928879;28;20135;-60
2022/01/14 01:42:32;;;;;;;29.13;13.05;;;6.00;99.90;;;;;;4928925;29;20045;-60
2022/01/14 01:45:01;;;;;;;30.25;13.10;;;6.00;99.90;;;;;;4928868;28;20043;-60
2022/01/14 01:47:27;;;;;;;28.23;13.32;;;6.10;99.90;;;;;;4928960;29;20094;-61
2022/01/14 01:49:53;;;;;;;30.88;13.27;;;6.00;99.90;;;;;;4932165;29;20098;-60
2022/01/14 01:52:19;;;;;;;26.42;13.27;;;6.00;99.90;;;;;;4959058;28;20451;-60
2022/01/14 01:54:45;;;;;;;39.30;14.13;;;6.10;99.90;;;;;;4992054;28;20079;-60
2022/01/14 01:57:10;;;;;;;33.35;13.30;;;6.10;99.90;;;;;;4991946;28;20092;-60
2022/01/14 01:59:36;;;;;;;30.65;13.23;;;6.10;99.90;;;;;;4991946;28;20126;-60
2022/01/14 02:02:02;;;;;;;32.38;13.80;;;6.10;99.90;;;;;;4991963;28;20419;-61
2022/01/14 02:04:29;;;;;;;37.90;13.20;;;6.10;99.90;;;;;;4991918;28;20053;-60
2022/01/14 02:06:56;;;;;;;30.70;14.70;;;6.20;99.90;;;;;;4989836;28;20061;-61
2022/01/14 02:09:23;;;;;;;28.90;13.38;;;6.20;99.90;;;;;;4991753;28;20042;-61
2022/01/14 02:11:49;;;;;;;29.95;13.15;;;6.20;99.90;;;;;;4991611;28;20472;-60
2022/01/14 02:14:53;;;;;;;28.50;14.65;;;6.20;99.90;;;;;;4991895;28;20369;-60
2022/01/14 02:17:29;;;;;;;28.02;13.57;;;6.20;99.90;;;;;;4991577;28;20054;-60
2022/01/14 02:22:56;;;;;;;26.63;12.88;;;6.20;99.90;;;;;;4991686;28;20058;-61
2022/01/14 02:25:32;;;;;;;27.58;14.00;;;6.30;99.90;;;;;;4991655;28;20045;-61
2022/01/14 02:28:10;;;;;;;36.30;13.57;;;6.30;99.90;;;;;;4991547;28;20046;-60
2022/01/14 02:30:39;;;;;;;23.67;13.57;;;6.30;99.90;;;;;;4991370;28;20034;-61
2022/01/14 02:33:05;;;;;;;31.48;13.52;;;6.20;99.90;;;;;;4991910;28;20091;-61
2022/01/14 02:35:31;;;;;;;30.90;14.82;;;6.30;99.90;;;;;;4991499;28;20034;-61
2022/01/14 02:37:57;;;;;;;27.65;15.70;;;6.30;99.90;;;;;;4991311;28;20485;-61
2022/01/14 02:40:23;;;;;;;26.00;14.52;;;6.30;99.90;;;;;;4991275;28;20376;-61
2022/01/14 02:42:49;;;;;;;33.50;15.02;;;6.30;99.90;;;;;;4991737;28;20039;-61
2022/01/14 02:45:16;;;;;;;26.25;14.13;;;6.30;99.90;;;;;;4991193;28;20087;-50
2022/01/14 02:47:42;;;;;;;31.95;16.70;;;6.30;99.90;;;;;;4991116;28;20072;-51
2022/01/14 02:50:12;;;;;;;26.65;14.82;;;6.30;99.90;;;;;;4991282;28;20092;-51
2022/01/14 02:55:22;;;;;;;33.42;16.45;;;6.30;99.90;;;;;;4991135;28;20445;-51
2022/01/14 02:57:50;;;;;;;36.17;15.77;;;6.40;99.90;;;;;;4990109;28;20100;-47
2022/01/14 03:00:18;;;;;;;26.45;14.02;;;6.40;99.90;;;;;;4990505;28;20066;-47
2022/01/14 03:02:49;;;;;;;29.20;15.50;;;6.40;99.90;;;;;;4991082;28;20091;-51
2022/01/14 03:05:17;;;;;;;25.92;14.90;;;6.40;99.90;;;;;;4991125;28;20068;-51
2022/01/14 03:07:43;;;;;;;31.58;14.82;;;6.40;99.90;;;;;;4991061;28;20074;-50
2022/01/14 03:10:12;;;;;;;23.05;14.57;;;6.40;99.90;;;;;;4990916;28;20073;-48
2022/01/14 03:12:39;;;;;;;30.63;16.58;;;6.40;99.90;;;;;;4991217;28;20076;-51
2022/01/14 03:15:05;;;;;;;32.78;16.33;;;6.40;99.90;;;;;;4973877;28;20034;-51
2022/01/14 03:17:31;;;;;;;26.05;15.75;;;6.40;99.90;;;;;;4990914;28;20047;-49
2022/01/14 03:20:00;;;;;;;40.38;15.82;;;6.50;99.90;;;;;;4990790;28;20081;-46
2022/01/14 03:22:30;;;;;;;27.05;15.32;;;6.50;99.90;;;;;;4990938;28;20039;-52
2022/01/14 03:27:22;;;;;;;30.50;16.73;;;6.40;99.90;;;;;;4990850;28;20054;-51
2022/01/14 03:29:48;;;;;;;27.58;16.45;;;6.50;99.90;;;;;;4991062;28;20476;-52
2022/01/14 03:32:14;;;;;;;33.00;15.57;;;6.40;99.90;;;;;;4990722;28;20482;-51
2022/01/14 03:34:40;;;;;;;32.03;16.90;;;6.40;99.90;;;;;;4990650;28;20039;-48
2022/01/14 03:37:06;;;;;;;41.75;18.27;;;6.50;99.90;;;;;;4990436;28;20424;-51
2022/01/14 03:39:32;;;;;;;38.45;16.10;;;6.50;99.90;;;;;;4990692;28;20091;-51
2022/01/14 03:41:58;;;;;;;31.05;15.65;;;6.50;99.90;;;;;;4990569;28;20404;-50
2022/01/14 03:44:23;;;;;;;26.05;15.80;;;6.50;99.90;;;;;;4990461;28;20046;-47
2022/01/14 03:46:49;;;;;;;33.17;16.05;;;6.60;99.90;;;;;;4990123;28;20062;-51
2022/01/14 03:49:15;;;;;;;29.75;15.40;;;6.50;99.90;;;;;;4990306;28;20394;-50
2022/01/14 03:51:42;;;;;;;28.58;15.90;;;6.50;99.90;;;;;;4990239;28;20042;-50
2022/01/14 03:54:07;;;;;;;26.92;15.57;;;6.60;99.90;;;;;;4990247;28;20045;-51
2022/01/14 03:56:33;;;;;;;29.00;15.13;;;6.60;99.90;;;;;;4990400;28;20054;-52
2022/01/14 03:59:01;;;;;;;25.88;15.20;;;6.60;99.90;;;;;;4988605;28;20050;-51
2022/01/14 04:01:26;;;;;;;25.50;14.93;;;6.60;99.90;;;;;;4990254;28;20034;-51
2022/01/14 04:03:52;;;;;;;31.70;15.90;;;6.60;99.90;;;;;;4990138;28;20480;-52
2022/01/14 04:06:18;;;;;;;33.45;15.45;;;6.60;99.90;;;;;;4990014;28;20495;-47
2022/01/14 04:08:44;;;;;;;27.33;15.50;;;6.60;99.90;;;;;;4990232;28;20038;-50
2022/01/14 04:11:11;;;;;;;23.67;15.27;;;6.60;99.90;;;;;;4989091;28;20043;-50
2022/01/14 04:13:47;;;;;;;33.45;16.70;;;6.60;99.90;;;;;;4990184;28;20400;-49
2022/01/14 04:16:14;;;;;;;39.22;16.40;;;6.60;99.90;;;;;;4990066;28;20042;-50
2022/01/14 04:18:40;;;;;;;33.60;15.35;;;6.60;99.90;;;;;;4989911;28;20042;-48
2022/01/14 04:21:06;;;;;;;32.53;15.25;;;6.50;99.90;;;;;;4989759;28;20092;-51
2022/01/14 04:23:31;;;;;;;28.08;15.93;;;6.50;99.90;;;;;;4990109;28;20128;-50
2022/01/14 04:25:58;;;;;;;29.70;15.38;;;6.50;99.90;;;;;;4989851;28;20078;-52
2022/01/14 04:28:25;;;;;;;30.65;15.43;;;6.40;99.90;;;;;;4990026;28;20039;-50
2022/01/14 04:30:54;;;;;;;36.17;16.42;;;6.40;99.90;;;;;;4989804;28;20030;-51
2022/01/14 04:33:25;;;;;;;41.33;16.63;;;6.30;99.90;;;;;;4989568;28;20038;-51
2022/01/14 04:35:54;;;;;;;32.75;15.60;;;6.30;99.90;;;;;;4989862;28;20038;-50
2022/01/14 04:38:20;;;;;;;27.95;16.42;;;6.30;99.90;;;;;;4989856;28;20077;-52
2022/01/14 04:40:46;;;;;;;29.75;15.75;;;6.30;99.90;;;;;;4988464;28;20472;-52
2022/01/14 04:43:15;;;;;;;29.92;15.45;;;6.30;99.90;;;;;;4989592;28;20044;-51
2022/01/14 04:45:53;;;;;;;28.80;15.20;;;6.30;99.90;;;;;;4989291;28;20539;-51
2022/01/14 04:48:19;;;;;;;28.08;15.77;;;6.20;99.90;;;;;;4989469;28;20043;-52
2022/01/14 04:50:45;;;;;;;32.45;15.98;;;6.30;99.90;;;;;;4989696;28;20034;-49
2022/01/14 04:53:11;;;;;;;25.88;14.48;;;6.20;99.90;;;;;;4989572;28;20103;-51
2022/01/14 04:55:37;;;;;;;31.60;15.40;;;6.20;99.90;;;;;;4989475;28;20427;-52
2022/01/14 04:58:03;;;;;;;30.10;15.32;;;6.20;99.90;;;;;;4989502;28;20167;-50
2022/01/14 05:00:29;;;;;;;30.15;15.32;;;6.30;99.90;;;;;;4988222;28;20492;-48
2022/01/14 05:02:55;;;;;;;36.15;16.58;;;6.20;99.90;;;;;;4989344;28;20054;-48
2022/01/14 05:05:28;;;;;;;26.17;14.98;;;6.20;99.90;;;;;;4989637;28;20054;-52
2022/01/14 05:07:53;;;;;;;29.75;16.05;;;6.20;99.90;;;;;;4989483;28;20049;-47
2022/01/14 05:12:56;;;;;;;31.33;16.10;;;6.20;99.90;;;;;;4989231;28;20480;-50
2022/01/14 05:15:22;;;;;;;41.10;15.60;;;6.20;99.90;;;;;;4989551;28;20045;-48
2022/01/14 05:17:49;;;;;;;28.90;17.77;;;6.20;99.90;;;;;;4989378;28;20038;-48
2022/01/14 05:20:16;;;;;;;29.05;16.08;;;6.20;99.90;;;;;;4989304;28;20117;-47
2022/01/14 05:22:42;;;;;;;33.22;17.10;;;6.30;99.90;;;;;;4990034;28;20053;-49
2022/01/14 05:25:09;;;;;;;31.48;16.17;;;6.20;99.90;;;;;;4991403;28;20038;-49
2022/01/14 05:27:36;;;;;;;28.58;17.30;;;6.20;99.90;;;;;;4992388;28;20439;-50
2022/01/14 05:30:05;;;;;;;36.70;18.80;;;6.10;99.90;;;;;;4992731;28;20042;-47
2022/01/14 05:32:30;;;;;;;35.75;17.77;;;6.20;99.90;;;;;;4992188;28;20038;-52
2022/01/14 05:34:56;;;;;;;26.08;16.63;;;6.20;99.90;;;;;;4992455;28;20060;-48
2022/01/14 05:37:22;;;;;;;31.67;17.83;;;6.20;99.90;;;;;;4992315;28;20042;-50
2022/01/14 05:39:47;;;;;;;29.27;17.52;;;6.20;99.90;;;;;;4992417;28;20039;-50
2022/01/14 05:42:13;;;;;;;28.63;16.65;;;6.20;99.90;;;;;;4991033;28;20545;-50
2022/01/14 05:44:39;;;;;;;27.80;17.02;;;6.20;99.90;;;;;;4992398;28;20038;-51
2022/01/14 05:47:05;;;;;;;26.08;17.00;;;6.20;99.90;;;;;;4991997;28;20508;-49
2022/01/14 05:49:31;;;;;;;36.25;17.45;;;6.20;99.90;;;;;;4992300;28;20034;-49
2022/01/14 05:51:57;;;;;;;32.97;18.60;;;6.20;99.90;;;;;;4992099;28;20104;-49
2022/01/14 05:54:23;;;;;;;35.75;16.70;;;6.20;99.90;;;;;;4992045;28;20473;-49
2022/01/14 05:56:49;;;;;;;33.83;17.67;;;6.20;99.90;;;;;;4991075;28;20472;-49
2022/01/14 05:59:15;;;;;;;32.03;16.25;;;6.20;99.90;;;;;;4992418;28;20478;-49
2022/01/14 06:01:41;;;;;;;33.05;16.02;;;6.20;99.90;;;;;;4992171;28;20070;-52
2022/01/14 06:04:07;;;;;;;33.10;16.38;;;6.30;99.90;;;;;;4992041;28;20377;-48
2022/01/14 06:06:34;;;;;;;26.65;15.48;;;6.30;99.90;;;;;;4991966;28;20087;-50
2022/01/14 06:09:00;;;;;;;36.00;18.05;;;6.30;99.90;;;;;;4991890;28;20400;-52
2022/01/14 06:11:26;;;;;;;30.90;16.85;;;6.30;99.90;;;;;;4991809;28;20035;-48
2022/01/14 06:13:52;;;;;;;36.45;16.05;;;6.30;99.90;;;;;;4991971;28;20046;-47
2022/01/14 06:16:18;;;;;;;28.15;16.25;;;6.30;99.90;;;;;;4991847;28;20121;-50
2022/01/14 06:18:45;;;;;;;29.73;16.58;;;6.30;99.90;;;;;;4991950;28;20172;-50
2022/01/14 06:21:11;;;;;;;30.55;17.08;;;6.30;99.90;;;;;;4991601;28;20099;-49
2022/01/14 06:23:37;;;;;;;31.33;17.20;;;6.40;99.90;;;;;;4991411;28;20046;-50
2022/01/14 06:26:03;;;;;;;31.77;17.23;;;6.30;99.90;;;;;;4991414;28;20065;-49
2022/01/14 06:28:30;;;;;;;27.50;17.50;;;6.40;99.90;;;;;;4991778;28;20495;-48
2022/01/14 06:30:55;;;;;;;31.90;16.92;;;6.30;99.90;;;;;;4991566;28;20038;-48
2022/01/14 06:33:21;;;;;;;30.17;15.77;;;6.40;99.90;;;;;;4991454;28;20396;-51
2022/01/14 06:35:47;;;;;;;26.00;16.30;;;6.40;99.90;;;;;;4990551;28;20047;-50
2022/01/14 06:38:12;;;;;;;30.67;16.67;;;6.40;99.90;;;;;;4991464;28;20522;-49
2022/01/14 06:40:38;;;;;;;27.60;15.65;;;6.40;99.90;;;;;;4991415;28;20495;-50
2022/01/14 06:43:05;;;;;;;30.88;15.93;;;6.40;99.90;;;;;;4991411;28;20046;-46
2022/01/14 06:45:31;;;;;;;29.13;15.02;;;6.40;99.90;;;;;;4991517;28;20042;-48
2022/01/14 06:47:57;;;;;;;32.20;15.77;;;6.40;99.90;;;;;;4991157;28;20080;-48
2022/01/14 06:50:23;;;;;;;35.13;16.35;;;6.40;99.90;;;;;;4991519;28;20124;-46
2022/01/14 06:52:48;;;;;;;32.03;14.95;;;6.40;99.90;;;;;;4991331;28;20500;-50
2022/01/14 06:55:14;;;;;;;27.60;16.63;;;6.40;99.90;;;;;;4991394;28;20050;-49
2022/01/14 06:57:40;;;;;;;24.08;14.77;;;6.40;99.90;;;;;;4991294;28;20038;-50
2022/01/14 07:00:12;;;;;;;36.42;17.35;;;6.40;99.90;;;;;;4991372;28;20039;-47
2022/01/14 07:02:37;;;;;;;32.13;15.55;;;6.40;99.90;;;;;;4991125;28;20075;-48
2022/01/14 07:05:04;;;;;;;31.13;15.82;;;6.40;99.90;;;;;;4991446;28;20046;-48
2022/01/14 07:07:30;;;;;;;28.27;15.52;;;6.40;99.90;;;;;;4991171;28;20366;-50
2022/01/14 07:09:56;;;;;;;31.85;15.10;;;6.40;99.90;;;;;;4991081;28;20042;-52
2022/01/14 07:12:32;;;;;;;27.23;14.07;;;6.40;99.90;;;;;;4991126;28;20384;-50
2022/01/14 07:14:59;;;;;;;28.60;13.68;;;6.40;99.90;;;;;;4990973;28;20117;-52
2022/01/14 07:17:25;;;;;;;31.85;14.40;;;6.40;99.90;;;;;;4990770;28;20117;-47
2022/01/14 07:19:54;;;;;;;32.83;13.18;;;6.40;99.90;;;;;;4990894;28;20125;-51
2022/01/14 07:22:21;;;;;;;29.80;13.43;;;6.40;99.90;;;;;;4990867;28;20042;-47
2022/01/14 07:24:47;;;;;;;28.67;12.80;;;6.40;99.90;;;;;;4990921;28;20107;-52
2022/01/14 07:27:13;;;;;;;26.15;12.40;;;6.40;99.90;;;;;;4990517;28;20480;-47
2022/01/14 07:29:39;;;;;;;30.00;11.60;;;6.40;99.90;;;;;;4990670;28;20042;-50
2022/01/14 07:32:05;;;;;;;33.60;13.35;;;6.40;99.90;;;;;;4990762;28;20390;-49
2022/01/14 07:34:31;;;;;;;22.27;12.00;;;6.40;99.90;;;;;;4990639;28;20045;-49
2022/01/14 07:36:57;;;;;;;33.08;11.95;;;6.40;99.90;;;;;;4989324;28;20058;-51
2022/01/14 07:39:23;;;;;;;31.10;12.10;;;6.40;99.90;;;;;;4990677;28;20087;-50
2022/01/14 07:41:53;;;;;;;20.48;11.32;;;6.40;99.90;;;;;;4990807;28;20046;-49
2022/01/14 07:44:19;;;;;;;25.85;11.70;;;6.40;99.90;;;;;;4990652;28;20046;-49
2022/01/14 07:46:45;;;;;;;26.88;12.88;;;6.40;99.90;;;;;;4990009;28;20055;-49
2022/01/14 07:49:11;;;;;;;23.77;12.13;;;6.50;99.90;;;;;;4990467;28;20054;-51
2022/01/14 07:51:36;;;;;;;26.38;12.70;;;6.50;99.90;;;;;;4990630;28;20038;-51
2022/01/14 07:54:05;;;;;;;30.08;12.45;;;6.50;99.90;;;;;;4990680;28;20038;-48
2022/01/14 07:56:35;;;;;;;31.38;12.13;;;6.50;99.90;;;;;;4989238;28;20049;-51
2022/01/14 07:59:03;;;;;;;24.70;11.65;;;6.50;99.90;;;;;;4990368;28;20046;-51
2022/01/14 08:01:28;;;;;;;27.98;11.30;;;6.50;99.90;;;;;;4990226;28;20064;-51
2022/01/14 08:03:54;;;;;;;24.35;11.07;;;6.50;99.90;;;;;;4990510;28;20039;-46
2022/01/14 08:06:22;;;;;;;31.08;12.85;;;6.50;99.90;;;;;;4990289;28;20107;-51
2022/01/14 08:08:48;;;;;;;26.10;11.68;;;6.50;99.90;;;;;;4990217;28;20046;-49
2022/01/14 08:11:14;;;;;;;26.10;11.70;;;6.50;99.90;;;;;;4990125;28;20091;-49
2022/01/14 08:13:40;;;;;;;32.00;11.88;;;6.50;99.90;;;;;;4990220;28;20439;-48
2022/01/14 08:16:05;;;;;;;22.73;10.15;;;6.50;99.90;;;;;;4990182;28;20046;-52
2022/01/14 08:18:31;;;;;;;19.27;10.18;;;6.50;99.90;;;;;;4989859;28;20046;-48
2022/01/14 08:20:57;;;;;;;20.55;8.57;;;6.60;99.90;;;;;;5004896;28;20045;-51
2022/01/14 08:23:22;;;;;;;18.40;8.60;;;6.60;99.90;;;;;;4990204;28;20095;-51
2022/01/14 08:25:52;;;;;;;17.00;8.35;;;6.60;99.90;;;;;;4989778;28;20104;-50
2022/01/14 08:28:19;;;;;;;17.02;8.10;;;6.60;99.90;;;;;;4989833;28;20042;-52
2022/01/14 08:30:45;;;;;;;24.80;8.02;;;6.60;99.90;;;;;;4989722;28;20181;-49
2022/01/14 08:33:12;;;;;;;18.90;8.20;;;6.60;99.90;;;;;;4989681;28;20499;-51
2022/01/14 08:35:38;;;;;;;22.35;7.53;;;6.60;99.90;;;;;;4989928;28;20062;-48
2022/01/14 08:38:04;;;;;;;18.65;8.85;;;6.70;99.90;;;;;;4989755;28;20042;-52
2022/01/14 08:40:30;;;;;;;15.90;7.20;;;6.70;99.90;;;;;;4989639;28;20480;-49
2022/01/14 08:42:56;;;;;;;19.60;7.43;;;6.70;99.90;;;;;;4989622;28;20035;-52
2022/01/14 08:45:22;;;;;;;19.00;7.35;;;6.70;99.90;;;;;;4988335;28;20049;-51
2022/01/14 08:47:53;;;;;;;20.17;7.00;;;6.70;99.90;;;;;;4989482;28;20066;-51
2022/01/14 08:50:35;;;;;;;23.20;6.82;;;6.80;99.90;;;;;;4989812;28;20388;-51
2022/01/14 08:53:01;;;;;;;20.23;6.90;;;6.80;99.90;;;;;;4989541;28;20038;-52
2022/01/14 08:55:27;;;;;;;18.23;6.10;;;6.80;99.90;;;;;;4989467;28;20515;-50
2022/01/14 08:57:53;;;;;;;20.33;5.93;;;6.80;99.90;;;;;;4990392;28;20042;-53
2022/01/14 09:00:22;;;;;;;15.68;5.75;;;6.80;99.90;;;;;;4993146;28;20048;-51
2022/01/14 09:02:48;;;;;;;;;;;6.90;99.90;;;;;;4993488;28;20034;-52
2022/01/14 09:05:14;;;;;;;18.85;5.75;;;6.90;99.90;;;;;;4992854;28;20360;-52
2022/01/14 09:07:40;;;;;;;15.35;6.10;;;6.90;99.90;;;;;;4992846;28;20135;-52
2022/01/14 09:10:08;;;;;;;15.15;5.43;;;7.00;99.90;;;;;;4992950;28;20392;-52
2022/01/14 09:12:34;;;;;;;11.77;5.35;;;7.00;99.90;;;;;;4992804;28;20070;-50
2022/01/14 09:15:00;;;;;;;14.38;5.10;;;7.00;99.90;;;;;;4992967;28;20031;-47
2022/01/14 09:17:27;;;;;;;17.95;5.35;;;7.00;99.90;;;;;;4992871;28;20053;-48
2022/01/14 09:19:53;;;;;;;16.02;5.82;;;7.10;99.90;;;;;;4992584;28;20500;-50
2022/01/14 09:22:19;;;;;;;17.10;6.68;;;7.10;99.90;;;;;;4992916;28;20038;-51
2022/01/14 09:24:46;;;;;;;23.27;5.88;;;7.10;99.90;;;;;;4992589;28;20049;-51
2022/01/14 09:27:13;;;;;;;14.35;4.80;;;7.20;99.90;;;;;;4992346;28;20396;-49
2022/01/14 09:29:40;;;;;;;13.50;4.43;;;7.20;99.90;;;;;;4992449;28;20076;-51
2022/01/14 09:32:06;;;;;;;12.93;4.40;;;7.20;99.90;;;;;;4992658;28;20034;-51
2022/01/14 09:34:33;;;;;;;18.98;5.53;;;7.20;99.90;;;;;;4992616;28;20046;-49
2022/01/14 09:36:59;;;;;;;16.17;4.78;;;7.20;99.90;;;;;;4992230;28;20042;-51
2022/01/14 09:39:24;;;;;;;14.77;5.43;;;7.20;99.90;;;;;;4992545;28;20046;-51
2022/01/14 09:41:50;;;;;;;19.33;4.20;;;7.20;99.90;;;;;;4992352;28;20487;-51
2022/01/14 09:44:17;;;;;;;19.02;4.03;;;7.20;99.90;;;;;;4992574;28;20053;-49
2022/01/14 09:46:47;;;;;;;15.95;4.38;;;7.30;99.90;;;;;;4992109;28;20065;-52
2022/01/14 09:49:14;;;;;;;8.32;4.22;;;7.30;99.90;;;;;;4992493;28;20125;-51
2022/01/14 09:51:40;;;;;;;10.50;4.20;;;7.30;99.90;;;;;;4992164;28;20497;-47
2022/01/14 09:54:08;;;;;;;9.43;3.25;;;7.40;99.90;;;;;;4992492;28;20046;-52
2022/01/14 09:56:34;;;;;;;15.32;5.05;;;7.40;99.90;;;;;;4992159;28;20056;-51
2022/01/14 09:59:02;;;;;;;14.43;3.88;;;7.40;99.90;;;;;;4992336;28;20405;-52
2022/01/14 10:01:28;;;;;;;12.90;4.13;;;7.40;99.90;;;;;;4992166;28;20054;-50
2022/01/14 10:04:02;;;;;;;18.23;4.32;;;7.40;99.90;;;;;;4992056;28;20125;-47
2022/01/14 10:06:35;;;;;;;18.48;3.88;;;7.50;99.90;;;;;;4991771;28;20053;-52
2022/01/14 10:09:09;;;;;;;17.17;4.03;;;7.50;99.90;;;;;;4990317;28;20042;-49
2022/01/14 10:11:37;;;;;;;13.10;3.00;;;7.40;99.90;;;;;;4992018;28;20102;-53
2022/01/14 10:14:17;;;;;;;14.82;3.33;;;7.50;99.90;;;;;;4991905;28;20574;-51
2022/01/14 10:16:44;;;;;;;19.80;4.32;;;7.50;99.90;;;;;;4991900;28;20198;-52
2022/01/14 10:19:32;;;;;;;11.98;3.70;;;7.50;99.90;;;;;;4991507;28;20500;-51
2022/01/14 10:21:58;;;;;;;17.40;3.63;;;7.50;99.90;;;;;;4991510;28;20488;-50
2022/01/14 10:24:27;;;;;;;12.75;3.42;;;7.50;99.90;;;;;;4991752;28;20087;-52
2022/01/14 10:26:55;;;;;;;;;;;7.50;99.90;;;;;;4992068;28;20076;-51
2022/01/14 10:29:40;;;;;;;20.45;3.33;;;7.60;99.90;;;;;;4991471;28;20017;-52
2022/01/14 10:32:09;;;;;;;18.23;3.85;;;7.50;99.90;;;;;;4991868;28;20034;-52
2022/01/14 10:34:35;;;;;;;17.80;3.05;;;7.50;99.90;;;;;;4991643;28;20125;-51
2022/01/14 10:37:11;;;;;;;11.52;3.05;;;7.50;99.90;;;;;;4991438;28;20043;-50
2022/01/14 10:39:49;;;;;;;13.98;3.05;;;7.50;99.90;;;;;;4991642;28;20404;-49
2022/01/14 10:42:30;;;;;;;14.98;3.30;;;7.60;99.90;;;;;;4991472;28;20121;-48
2022/01/14 10:45:22;;;;;;;18.15;4.60;;;7.50;99.90;;;;;;4991513;28;20137;-51
2022/01/14 10:48:06;;;;;;;17.33;3.65;;;7.50;99.90;;;;;;4991154;28;20519;-50
2022/01/14 10:50:47;;;;;;;14.70;3.60;;;7.50;99.90;;;;;;4991271;28;20122;-51
2022/01/14 10:53:23;;;;;;;13.45;3.70;;;7.50;99.90;;;;;;4991615;28;20034;-47
2022/01/14 10:56:00;;;;;;;14.40;3.65;;;7.60;99.90;;;;;;4991155;28;20042;-50
2022/01/14 10:58:31;;;;;;;25.92;4.60;;;7.60;99.90;;;;;;4989972;28;20046;-51
2022/01/14 11:01:20;;;;;;;19.63;3.65;;;7.60;99.90;;;;;;4991348;28;20096;-51
2022/01/14 11:03:56;;;;;;;19.48;4.43;;;7.60;99.90;;;;;;4991536;28;20138;-48
2022/01/14 11:06:26;;;;;;;12.35;3.50;;;7.60;99.90;;;;;;4991001;28;20085;-48
2022/01/14 11:08:57;;;;;;;22.52;4.97;;;7.70;99.90;;;;;;4991050;28;20042;-51
2022/01/14 11:11:24;;;;;;;21.83;3.72;;;7.70;99.90;;;;;;4990801;28;20034;-51
2022/01/14 11:13:50;;;;;;;22.75;4.43;;;7.70;99.90;;;;;;4991021;28;20042;-49
2022/01/14 11:16:16;;;;;;;14.48;3.65;;;7.70;99.90;;;;;;4991098;28;20138;-51
2022/01/14 11:18:42;;;;;;;17.75;4.25;;;7.70;99.90;;;;;;4990891;28;20043;-50
2022/01/14 11:23:52;;;;;;;21.77;4.30;;;7.70;99.90;;;;;;4990788;28;20133;-47
2022/01/14 11:26:20;;;;;;;23.13;4.10;;;7.70;99.90;;;;;;4990843;28;20117;-52
2022/01/14 11:28:47;;;;;;;13.52;4.30;;;7.70;99.90;;;;;;4991015;28;20426;-48
2022/01/14 11:31:30;;;;;;;20.88;4.53;;;7.80;99.90;;;;;;4990809;28;20034;-48
2022/01/14 11:33:57;;;;;;;18.88;5.32;;;7.70;99.90;;;;;;4990630;28;20096;-50
2022/01/14 11:36:24;;;;;;;17.90;4.40;;;7.70;99.90;;;;;;4990547;28;20046;-51
2022/01/14 11:38:50;;;;;;;16.88;4.38;;;7.70;99.90;;;;;;4990508;28;20476;-50
2022/01/14 11:41:52;;;;;;;16.98;4.63;;;7.70;99.90;;;;;;4989355;28;20034;-51
2022/01/14 11:44:55;;;;;;;12.20;3.55;;;7.80;99.90;;;;;;4990364;28;20127;-52
2022/01/14 11:47:24;;;;;;;19.98;5.15;;;7.80;99.90;;;;;;4990176;28;20050;-51
2022/01/14 11:49:59;;;;;;;14.52;4.10;;;7.80;99.90;;;;;;4990430;28;20042;-51
2022/01/14 11:52:40;;;;;;;14.68;4.68;;;7.80;99.90;;;;;;4990410;28;20180;-50
2022/01/14 11:55:32;;;;;;;20.83;6.13;;;7.80;99.90;;;;;;4990309;28;20039;-50
2022/01/14 11:57:59;;;;;;;19.33;4.65;;;7.80;99.90;;;;;;4990113;28;20125;-52
2022/01/14 12:00:29;;;;;;;21.88;5.55;;;7.80;99.90;;;;;;4990276;28;20118;-48
2022/01/14 12:03:09;;;;;;;21.45;5.47;;;7.80;99.90;;;;;;4990278;28;20056;-48
2022/01/14 12:05:57;;;;;;;12.18;4.22;;;7.80;99.90;;;;;;4989956;28;20508;-51
2022/01/14 12:08:34;;;;;;;12.57;4.20;;;7.80;99.90;;;;;;5010361;28;20042;-52
2022/01/14 12:11:09;;;;;;;19.35;5.38;;;7.80;99.90;;;;;;4993537;28;20046;-51
2022/01/14 12:13:42;;;;;;;20.15;4.65;;;7.80;99.90;;;;;;5010427;28;20132;-52
2022/01/14 12:16:36;;;;;;;18.23;5.68;;;7.90;99.90;;;;;;5010221;28;20515;-49
2022/01/14 12:19:02;;;;;;;20.52;4.97;;;7.90;99.90;;;;;;5010253;28;20069;-50
2022/01/14 12:21:48;;;;;;;14.13;4.75;;;7.90;99.90;;;;;;5010200;28;20084;-49
2022/01/14 12:24:19;;;;;;;22.80;5.40;;;7.90;99.90;;;;;;5010293;28;20044;-52
2022/01/14 12:27:00;;;;;;;21.88;4.85;;;8.00;99.90;;;;;;5009936;28;20054;-52
2022/01/14 12:29:33;;;;;;;22.48;4.47;;;7.90;99.90;;;;;;5010156;28;20116;-51
2022/01/14 12:32:08;;;;;;;19.02;5.32;;;7.90;99.90;;;;;;5009415;28;20074;-46
2022/01/14 12:34:39;;;;;;;18.23;4.50;;;7.90;99.90;;;;;;5009732;28;20041;-52
2022/01/14 12:37:06;;;;;;;21.33;5.82;;;7.90;99.90;;;;;;5009987;28;20125;-52
2022/01/14 12:39:33;;;;;;;14.38;3.90;;;7.90;99.90;;;;;;5009819;28;20504;-52
2022/01/14 12:42:00;;;;;;;19.02;4.30;;;7.90;99.90;;;;;;5009831;28;20073;-51
2022/01/14 12:44:26;;;;;;;15.48;4.90;;;7.90;99.90;;;;;;5008389;28;20096;-51
2022/01/14 12:47:08;;;;;;;22.60;5.20;;;8.00;99.90;;;;;;4988313;28;20133;-51
2022/01/14 12:49:39;;;;;;;22.20;6.03;;;7.90;99.90;;;;;;4989601;28;20579;-51
2022/01/14 12:52:22;;;;;;;24.77;5.82;;;7.90;99.90;;;;;;4989693;28;20389;-50
2022/01/14 12:54:48;;;;;;;26.70;6.93;;;7.90;99.90;;;;;;4989609;28;20404;-52
2022/01/14 12:57:16;;;;;;;19.70;5.28;;;7.90;99.90;;;;;;4989418;28;20036;-49
2022/01/14 12:59:46;;;;;;;23.30;4.78;;;7.90;99.90;;;;;;4989435;28;20126;-51
2022/01/14 13:02:26;;;;;;;21.98;5.30;;;7.90;99.90;;;;;;4989350;28;20046;-52
2022/01/14 13:05:03;;;;;;;22.17;5.22;;;7.90;99.90;;;;;;4989769;28;20056;-50
2022/01/14 13:07:30;;;;;;;13.57;4.50;;;7.90;99.90;;;;;;4989385;28;20038;-50
2022/01/14 13:09:56;;;;;;;22.90;5.65;;;7.90;99.90;;;;;;4989241;28;20038;-51
2022/01/14 13:12:26;;;;;;;21.52;5.72;;;7.90;99.90;;;;;;4987995;28;20046;-52
2022/01/14 13:15:01;;;;;;;16.23;4.97;;;7.90;99.90;;;;;;4989462;28;20042;-49